Pacific - Georgia Basin: Past 24 Hour Conditions

 

Vancouver Int'l Airport

12:00 PM PDT 24 July 2014
This table is a summary of hourly weather conditions for the past 24 hours.
Date / Time
(PDT)
Wind(knots) Conditions Visibility(km) Pressure(kPa) Air tempC) Relative humidity(%) Dew pointC)
24 July 2014
12:00 SSW 3 Mostly Cloudy 24 102.0 16 76 12
11:00 WNW 4 Mostly Cloudy 24 102.0 17 79 13
10:00 SE 5 Mostly Cloudy 24 101.9 15 89 13
9:00 SSE 8 Mostly Cloudy 24 101.8 14 92 13
8:00 SSE 9 Light Rain 19 101.8 14 94 13
7:00 SSE 7 Light Rain 16 101.7 13 97 13
6:00 SE 8 Light Rain 13 101.7 13 97 13
5:00 SE 7 Light Rain 19 101.7 13 97 13
4:00 SE 7 Light Rain 19 101.7 13 96 13
3:00 E 7 Light Rain 19 101.7 13 97 13
2:00 ESE 7 Light Rain 19 101.7 14 96 13
1:00 E 8 Light Rain 19 101.7 14 95 13
0:00 E 8 Partly Cloudy 19 101.7 14 95 13
23 July 2014
23:00 E 8 Partly Cloudy 19 101.7 14 94 13
22:00 ESE 9 Light Rain 16 101.7 14 93 13
21:00 SE 9 Light Rain 16 101.7 14 94 13
20:00 SSE 9 Light Rain 10 101.6 14 92 13
19:00 SW 11 gust 16 Light Rain 16 101.5 16 79 12
18:00 SSW 12 gust 19 Light Rain 24 101.5 16 88 14
17:00 SSE 11 Light Rainshower 19 101.5 17 84 14
16:00 SE 9 Light Rain 19 101.5 17 89 15
15:00 SE 15 Mostly Cloudy 24 101.5 19 78 15
14:00 SE 13 Light Rainshower 24 101.5 19 82 16
13:00 SE 9 Light Rainshower 24 101.5 18 85 16
12:00 SE 10 Partly Cloudy 24 101.5 19 82 16
 
Map of Pacific - Georgia Basin marine weather areas Tsawwassen Ferry Terminal Sentry Shoal - 46131 Halibut Bank - 46146 La Perouse Bank - 46206 Discovery Island Esquimalt Harbour Kelp Reefs Malahat Race Rocks Lightstation Saturna Island Sheringham Point University of Victoria Victoria Gonzales Victoria Int'l Airport Ballenas Islands Campbell River Airport Comox Airport Entrance Island Fanny Island Nanaimo Airport Sisters Islets Estevan Point Tofino Airport Grief Point Powell River Airport Sechelt Point Atkinson Sand Heads Lightstation Vancouver Harbour Vancouver Int'l Airport West Vancouver Port Alberni Howe Sound - Pam Rocks Squamish Airport